Old Glory, Texas
Current Conditions -  °F | °C
As of 1:58 AM on Sunday 26 Oct 2014 (Local Time) from KDYS Reporting Station
Clear Clear  
Wind Chill: 62°   Ceiling: Unl
Heat Index: 62°   Visibility: 10mi
Dew Point: 50°   Wind: 8mph
Humidity: 66%   Direction: 150°SSE
Pressure: 30.04"   Gusts: NA
Location:  33.13°N, 100.06°W
Report Text: KDYS 260658Z AUTO 15007KT 10SM CLR 17/10 A3004 RMK AO2 SLP133 T01650101 $
Loading
Personal Weather Stations






























Interactive Weather Map
Tropical Storm Tracking
New forecast layout! Learn more

10-Day Weather Forecast

Advertisements
Track Severe Weather on mobile